»·PEaware :: N1367R KTUS-MMMY

N1367R :: KTUS-MMMY

FLIGHT INFORMATION

Flight Status: Arrived
Operator: Privately registered:
United States
More flights under this callsign
Pilot: Chase C. (10526)
Aircraft: Unknown
(E50P)
More flights by this aircraft type
Origin: KTUS Tucson Intl
United States
Destination: MMMY Gen Mariano Escobedo Intl
Mexico
More flights between these airports :: More routes between these airports
Route: BURRO4 NOCHI ELP XOXIL UJ15 MTY
File this flight plan on PilotEdge
Remarks:
Altitude:
(Current/Filed)
41,000ft
Speed:
(Current/Filed)
400kts
Departed: 11-Sep-18 03:47 PM
Arrived: 11-Sep-18 06:04 PM
Distance/Time
Traveled:
683nm/2:17
Distance/Time
To Go:
Arrived

Flight Plot

Page will automatically refresh every two minutes.

Flight plan parsing failed; only flown route is shown


Map Options




Map Legend


Flown Route
Filed Route
Departure Airport
Arrival Airport
Navaid (VOR, NDB)
Fix

Horizontal Profiles

Position Reports

Time Latitude Longitude Heading Altitude Ground
Speed
11-Sep-18 15:23 32.124199 -110.945682 23 2650ft 10kts
11-Sep-18 15:24 32.124241 -110.945451 223 2650ft 0kts
11-Sep-18 15:25 32.124241 -110.945451 223 2650ft 0kts
11-Sep-18 15:26 32.124241 -110.945451 223 2650ft 0kts
11-Sep-18 15:27 32.124241 -110.945451 223 2650ft 0kts
11-Sep-18 15:28 32.124241 -110.945451 223 2650ft 0kts
11-Sep-18 15:29 32.124241 -110.945451 223 2650ft 0kts
11-Sep-18 15:30 32.124241 -110.945451 223 2650ft 0kts
11-Sep-18 15:31 32.124241 -110.945451 223 2650ft 0kts
11-Sep-18 15:32 32.124241 -110.945451 223 2650ft 0kts
11-Sep-18 15:33 32.124241 -110.945451 223 2650ft 0kts
11-Sep-18 15:34 32.124241 -110.945451 223 2650ft 0kts
11-Sep-18 15:35 32.124241 -110.945451 223 2650ft 0kts
11-Sep-18 15:36 32.124241 -110.945451 223 2650ft 0kts
11-Sep-18 15:37 32.124045 -110.945653 211 2650ft 6kts
11-Sep-18 15:38 32.122618 -110.944478 133 2650ft 11kts
11-Sep-18 15:39 32.120789 -110.942363 133 2650ft 13kts
11-Sep-18 15:40 32.119185 -110.940462 135 2650ft 14kts
11-Sep-18 15:41 32.117651 -110.938663 133 2650ft 15kts
11-Sep-18 15:42 32.116031 -110.936738 133 2650ft 16kts
11-Sep-18 15:43 32.113929 -110.934304 138 2650ft 17kts
11-Sep-18 15:44 32.111485 -110.931418 135 2650ft 17kts
11-Sep-18 15:45 32.108692 -110.928206 135 2650ft 18kts
11-Sep-18 15:46 32.106311 -110.925393 134 2650ft 18kts
11-Sep-18 15:47 32.104086 -110.922803 136 2650ft 13kts
11-Sep-18 15:48 32.102707 -110.923654 315 2650ft 17kts
11-Sep-18 15:49 32.119455 -110.943347 315 3474ft 195kts
11-Sep-18 15:50 32.160564 -110.955136 349 6149ft 245kts
11-Sep-18 15:51 32.209759 -110.965850 348 9723ft 259kts
11-Sep-18 15:52 32.263904 -110.977268 348 12755ft 275kts
11-Sep-18 15:53 32.324700 -110.989911 348 15608ft 287kts
11-Sep-18 15:54 32.382836 -111.001954 348 17986ft 297kts
11-Sep-18 15:55 32.443719 -111.014639 348 20117ft 306kts
11-Sep-18 15:56 32.505021 -111.043909 304 22135ft 309kts
11-Sep-18 15:57 32.512863 -111.091063 257 24079ft 312kts
11-Sep-18 15:58 32.489231 -111.130800 213 25863ft 322kts
11-Sep-18 15:59 32.431698 -111.133344 155 28040ft 343kts
11-Sep-18 16:00 32.394115 -111.067435 107 29934ft 360kts
11-Sep-18 16:01 32.370164 -110.981199 108 31446ft 371kts
11-Sep-18 16:02 32.341187 -110.874001 108 33103ft 382kts
11-Sep-18 16:03 32.317855 -110.787881 108 34318ft 389kts
11-Sep-18 16:04 32.291937 -110.692479 108 35546ft 396kts
11-Sep-18 16:05 32.268022 -110.604854 108 36564ft 402kts
11-Sep-18 16:06 32.244449 -110.518655 108 37465ft 395kts
11-Sep-18 16:07 32.222525 -110.438703 108 38740ft 387kts
11-Sep-18 16:08 32.194166 -110.335651 109 39647ft 395kts
11-Sep-18 16:09 32.174535 -110.264512 109 40241ft 399kts
11-Sep-18 16:10 32.152257 -110.184025 109 40863ft 404kts
11-Sep-18 16:11 32.125390 -110.087252 109 41111ft 421kts
11-Sep-18 16:12 32.108328 -110.025971 109 41112ft 435kts
11-Sep-18 16:13 32.089603 -109.958805 109 41111ft 445kts
11-Sep-18 16:14 32.070992 -109.892306 109 41107ft 455kts
11-Sep-18 16:15 32.043325 -109.814296 127 41076ft 461kts
11-Sep-18 16:16 31.993827 -109.726031 123 41069ft 470kts
11-Sep-18 16:17 31.945897 -109.638755 123 41049ft 475kts
11-Sep-18 16:18 31.894053 -109.544726 123 41047ft 479kts
11-Sep-18 16:19 31.841299 -109.449302 123 41047ft 482kts
11-Sep-18 16:20 31.787985 -109.353111 123 41048ft 483kts
11-Sep-18 16:21 31.735858 -109.259291 124 41044ft 484kts
11-Sep-18 16:22 31.681704 -109.162052 124 41045ft 484kts
11-Sep-18 16:23 31.627397 -109.064764 124 41045ft 484kts
11-Sep-18 16:24 31.572896 -108.967409 125 41046ft 485kts
11-Sep-18 16:25 31.518789 -108.871062 125 41046ft 486kts
11-Sep-18 16:26 31.465346 -108.776089 125 41046ft 486kts
11-Sep-18 16:27 31.410783 -108.679293 125 41047ft 487kts
11-Sep-18 16:28 31.356129 -108.582697 125 41047ft 487kts
11-Sep-18 16:29 31.301592 -108.486499 125 41047ft 487kts
11-Sep-18 16:30 31.246944 -108.390311 125 41053ft 487kts
11-Sep-18 16:31 31.195003 -108.299101 125 41056ft 487kts
11-Sep-18 16:32 31.140867 -108.204308 125 41062ft 486kts
11-Sep-18 16:33 31.085303 -108.107243 125 41062ft 487kts
11-Sep-18 16:34 31.031230 -108.013002 125 41063ft 487kts
11-Sep-18 16:35 30.977585 -107.919715 125 41063ft 486kts
11-Sep-18 16:36 30.924152 -107.827035 125 41064ft 486kts
11-Sep-18 16:37 30.872607 -107.737832 125 41065ft 486kts
11-Sep-18 16:38 30.814637 -107.637781 125 41062ft 485kts
11-Sep-18 16:39 30.763737 -107.550114 125 41059ft 485kts
11-Sep-18 16:40 30.710546 -107.458724 125 41057ft 485kts
11-Sep-18 16:41 30.658059 -107.368720 125 41057ft 485kts
11-Sep-18 16:42 30.606335 -107.280231 126 41053ft 485kts
11-Sep-18 16:43 30.553961 -107.190833 126 41054ft 485kts
11-Sep-18 16:44 30.501838 -107.102072 126 41054ft 485kts
11-Sep-18 16:45 30.449556 -107.013227 126 41054ft 485kts
11-Sep-18 16:46 30.397518 -106.925020 126 41054ft 486kts
11-Sep-18 16:47 30.345215 -106.836545 126 41055ft 487kts
11-Sep-18 16:48 30.290986 -106.745018 126 41056ft 489kts
11-Sep-18 16:49 30.231696 -106.645158 126 41057ft 491kts
11-Sep-18 16:50 30.172624 -106.545935 126 41079ft 491kts
11-Sep-18 16:51 30.114531 -106.448580 126 41103ft 491kts
11-Sep-18 16:52 30.059772 -106.357047 126 41121ft 491kts
11-Sep-18 16:53 30.001244 -106.259431 126 41117ft 491kts
11-Sep-18 16:54 29.942067 -106.160989 126 41117ft 491kts
11-Sep-18 16:55 29.882781 -106.062567 126 41118ft 491kts
11-Sep-18 16:56 29.823749 -105.964835 126 41119ft 491kts
11-Sep-18 16:57 29.765383 -105.868415 126 41120ft 492kts
11-Sep-18 16:58 29.705891 -105.770361 126 41120ft 492kts
11-Sep-18 16:59 29.645962 -105.671855 126 41120ft 492kts
11-Sep-18 17:00 29.585573 -105.572834 126 41121ft 492kts
11-Sep-18 17:01 29.526495 -105.476172 126 41121ft 492kts
11-Sep-18 17:02 29.468163 -105.380971 126 41122ft 492kts
11-Sep-18 17:03 29.409336 -105.285155 127 41117ft 492kts
11-Sep-18 17:04 29.350133 -105.188981 127 41118ft 491kts
11-Sep-18 17:05 29.291000 -105.093163 127 41117ft 491kts
11-Sep-18 17:06 29.231347 -104.996736 126 41119ft 491kts
11-Sep-18 17:07 29.171432 -104.900071 126 41119ft 491kts
11-Sep-18 17:08 29.111876 -104.804139 126 41119ft 491kts
11-Sep-18 17:09 29.051454 -104.707094 126 41120ft 491kts
11-Sep-18 17:10 28.990371 -104.609225 126 41114ft 492kts
11-Sep-18 17:11 28.928538 -104.510385 126 41074ft 494kts
11-Sep-18 17:12 28.864927 -104.412124 128 41071ft 494kts
11-Sep-18 17:13 28.796635 -104.312498 129 41077ft 494kts
11-Sep-18 17:14 28.731107 -104.216785 129 41035ft 495kts
11-Sep-18 17:15 28.675736 -104.136072 129 41000ft 495kts
11-Sep-18 17:16 28.620169 -104.055230 129 41003ft 495kts
11-Sep-18 17:17 28.564262 -103.974056 129 40479ft 504kts
11-Sep-18 17:18 28.507976 -103.892486 129 39842ft 508kts
11-Sep-18 17:19 28.447130 -103.804474 129 39158ft 510kts
11-Sep-18 17:20 28.382680 -103.711457 129 38402ft 510kts
11-Sep-18 17:21 28.317895 -103.618161 129 37629ft 510kts
11-Sep-18 17:22 28.250659 -103.521551 129 36830ft 509kts
11-Sep-18 17:23 28.179478 -103.419511 129 35987ft 509kts
11-Sep-18 17:24 28.116580 -103.329544 129 35239ft 509kts
11-Sep-18 17:25 28.050434 -103.235151 129 34402ft 511kts
11-Sep-18 17:26 27.995356 -103.156729 129 33654ft 513kts
11-Sep-18 17:27 27.934280 -103.069932 129 32832ft 515kts
11-Sep-18 17:28 27.877982 -102.990054 128 32078ft 517kts
11-Sep-18 17:29 27.825999 -102.916421 128 31380ft 519kts
11-Sep-18 17:30 27.766978 -102.832968 128 30591ft 520kts
11-Sep-18 17:31 27.713023 -102.756830 128 29874ft 521kts
11-Sep-18 17:32 27.655609 -102.675970 128 29114ft 521kts
11-Sep-18 17:33 27.579868 -102.569508 128 27999ft 521kts
11-Sep-18 17:34 27.504527 -102.463872 128 26886ft 517kts
11-Sep-18 17:35 27.429356 -102.358730 128 25778ft 516kts
11-Sep-18 17:36 27.356957 -102.257703 128 24695ft 508kts
11-Sep-18 17:37 27.287735 -102.161342 128 23581ft 470kts
11-Sep-18 17:38 27.222059 -102.070097 128 22480ft 452kts
11-Sep-18 17:39 27.157494 -101.980580 128 21373ft 442kts
11-Sep-18 17:40 27.094383 -101.893245 128 20287ft 449kts
11-Sep-18 17:41 27.033491 -101.809179 128 19238ft 436kts
11-Sep-18 17:42 26.970644 -101.722562 128 18138ft 430kts
11-Sep-18 17:43 26.908159 -101.636604 128 17034ft 426kts
11-Sep-18 17:44 26.847771 -101.553697 128 15945ft 423kts
11-Sep-18 17:45 26.784591 -101.467117 128 14799ft 421kts
11-Sep-18 17:46 26.723388 -101.383417 128 13834ft 408kts
11-Sep-18 17:47 26.666178 -101.305303 128 12988ft 396kts
11-Sep-18 17:48 26.604249 -101.220904 128 12068ft 395kts
11-Sep-18 17:49 26.540763 -101.134556 128 11183ft 395kts
11-Sep-18 17:50 26.479087 -101.050825 128 11174ft 432kts
11-Sep-18 17:51 26.418231 -100.968376 128 11145ft 451kts
11-Sep-18 17:52 26.359066 -100.888363 128 10504ft 437kts
11-Sep-18 17:53 26.295546 -100.802596 128 9795ft 422kts
11-Sep-18 17:54 26.231874 -100.716786 128 9106ft 420kts
11-Sep-18 17:55 26.166909 -100.629418 128 9070ft 414kts
11-Sep-18 17:56 26.103145 -100.543819 128 9070ft 412kts
11-Sep-18 17:57 26.043014 -100.464720 134 9068ft 412kts
11-Sep-18 17:58 25.985917 -100.402714 134 9067ft 293kts
11-Sep-18 17:59 25.934741 -100.347397 135 8305ft 279kts
11-Sep-18 18:00 25.891094 -100.300101 133 7403ft 254kts
11-Sep-18 18:01 25.854973 -100.248842 118 5937ft 258kts
11-Sep-18 18:02 25.826191 -100.193247 120 4264ft 233kts
11-Sep-18 18:03 25.800735 -100.147221 120 2502ft 129kts
11-Sep-18 18:04 25.789218 -100.126412 121 1500ft 107kts
11-Sep-18 18:05 25.783722 -100.116484 120 1282ft 93kts
11-Sep-18 18:06 25.778562 -100.107690 278 1282ft 5kts
11-Sep-18 18:07 25.778595 -100.110643 260 1282ft 18kts
11-Sep-18 18:08 25.776491 -100.111583 211 1282ft 2kts
11-Sep-18 18:09 25.776439 -100.111619 211 1282ft 0kts
11-Sep-18 18:10 25.776439 -100.111619 211 1282ft 0kts

Navigation Log

Ident Type
Flight plan parsing failed, navigation log unavailable